Time;durP1;ratioP1;P1;durP2;ratioP2;P2;SDS_P1;SDS_P2;PMS_P1;PMS_P2;Temp;Humidity;BMP_temperature;BMP_pressure;BME280_temperature;BME280_humidity;BME280_pressure;Samples;Min_cycle;Max_cycle;Signal;HPM_P1;HPM_P2
2022/08/27 00:01:30;;;;;;;11.52;9.23;;;;;;;;;;4964324;28;20704;-63
2022/08/27 00:03:56;;;;;;;11.45;9.98;;;;;;;;;;4963693;28;20034;-63
2022/08/27 00:06:21;;;;;;;11.57;8.48;;;;;;;;;;4949928;28;20451;-63
2022/08/27 00:08:47;;;;;;;10.52;9.48;;;;;;;;;;4961993;28;20154;-64
2022/08/27 00:11:12;;;;;;;9.13;7.85;;;;;;;;;;4964197;28;20397;-63
2022/08/27 00:13:38;;;;;;;9.80;8.82;;;;;;;;;;4964139;28;20125;-63
2022/08/27 00:16:05;;;;;;;9.98;8.98;;;;;;;;;;4964653;28;20113;-63
2022/08/27 00:18:30;;;;;;;10.13;8.52;;;;;;;;;;4964133;28;20031;-63
2022/08/27 00:20:56;;;;;;;9.50;8.70;;;;;;;;;;4964385;28;20034;-63
2022/08/27 00:23:21;;;;;;;9.35;8.45;;;;;;;;;;4964268;28;20038;-63
2022/08/27 00:25:46;;;;;;;10.63;8.65;;;;;;;;;;4965251;28;20418;-63
2022/08/27 00:28:11;;;;;;;12.00;10.10;;;;;;;;;;4967066;28;20030;-64
2022/08/27 00:30:38;;;;;;;11.35;9.60;;;;;;;;;;4968073;28;20046;-63
2022/08/27 00:33:03;;;;;;;10.85;9.30;;;;;;;;;;4969963;28;20070;-63
2022/08/27 00:35:29;;;;;;;10.82;9.70;;;;;;;;;;4983046;28;20121;-64
2022/08/27 00:37:54;;;;;;;12.45;10.35;;;;;;;;;;4983355;28;20456;-63
2022/08/27 00:40:20;;;;;;;10.80;9.20;;;;;;;;;;4987166;28;20041;-64
2022/08/27 00:42:46;;;;;;;11.82;10.15;;;;;;;;;;4986766;28;20034;-63
2022/08/27 00:45:15;;;;;;;13.27;11.93;;;;;;;;;;4982578;28;20033;-64
2022/08/27 00:47:47;;;;;;;14.15;10.77;;;;;;;;;;4964629;28;20367;-64
2022/08/27 00:50:14;;;;;;;11.90;10.65;;;;;;;;;;4986935;28;20550;-64
2022/08/27 00:52:50;;;;;;;14.35;10.48;;;;;;;;;;4986860;28;20069;-64
2022/08/27 00:55:17;;;;;;;11.68;10.07;;;;;;;;;;4987345;28;20034;-64
2022/08/27 00:57:43;;;;;;;10.73;9.73;;;;;;;;;;4986604;28;20225;-65
2022/08/27 01:00:12;;;;;;;12.38;10.05;;;;;;;;;;4986325;28;20929;-64
2022/08/27 01:02:37;;;;;;;11.48;10.38;;;;;;;;;;4983674;28;20117;-64
2022/08/27 01:05:05;;;;;;;11.15;9.45;;;;;;;;;;4982238;28;20453;-65
2022/08/27 01:07:32;;;;;;;11.35;10.15;;;;;;;;;;4985057;28;20113;-64
2022/08/27 01:09:58;;;;;;;14.18;10.13;;;;;;;;;;4981580;28;20073;-64
2022/08/27 01:12:23;;;;;;;10.35;9.35;;;;;;;;;;4982496;28;20027;-65
2022/08/27 01:14:48;;;;;;;11.80;9.68;;;;;;;;;;4985970;28;20116;-64
2022/08/27 01:17:14;;;;;;;10.90;9.65;;;;;;;;;;4986527;28;20066;-65
2022/08/27 01:19:51;;;;;;;12.70;9.98;;;;;;;;;;4968757;28;20093;-64
2022/08/27 01:22:35;;;;;;;11.93;10.68;;;;;;;;;;4986147;28;20056;-64
2022/08/27 01:25:04;;;;;;;17.08;11.68;;;;;;;;;;4985603;28;20026;-64
2022/08/27 01:27:30;;;;;;;13.82;10.00;;;;;;;;;;4985684;28;20026;-64
2022/08/27 01:29:56;;;;;;;13.77;10.07;;;;;;;;;;4985450;28;20030;-64
2022/08/27 01:32:31;;;;;;;13.10;10.07;;;;;;;;;;4986537;28;20034;-64
2022/08/27 01:34:57;;;;;;;10.75;9.68;;;;;;;;;;4986772;28;21096;-64
2022/08/27 01:37:24;;;;;;;11.00;9.90;;;;;;;;;;4985907;28;20449;-65
2022/08/27 01:39:50;;;;;;;15.00;10.75;;;;;;;;;;4984947;28;20031;-62
2022/08/27 01:42:23;;;;;;;13.07;11.10;;;;;;;;;;4986665;28;20034;-65
2022/08/27 01:44:57;;;;;;;15.38;10.35;;;;;;;;;;4985703;28;20378;-65
2022/08/27 01:47:23;;;;;;;12.32;11.05;;;;;;;;;;4968033;28;20378;-64
2022/08/27 01:49:48;;;;;;;10.63;9.63;;;;;;;;;;4981612;28;20034;-64
2022/08/27 01:52:15;;;;;;;12.45;10.25;;;;;;;;;;4981291;28;20039;-64
2022/08/27 01:54:40;;;;;;;11.90;10.73;;;;;;;;;;4984625;28;20030;-65
2022/08/27 01:57:05;;;;;;;12.52;10.98;;;;;;;;;;4968417;28;20120;-65
2022/08/27 01:59:40;;;;;;;11.68;10.07;;;;;;;;;;4985461;28;20065;-65
2022/08/27 02:02:06;;;;;;;12.00;10.80;;;;;;;;;;4985544;28;20469;-65
2022/08/27 02:04:32;;;;;;;13.00;10.45;;;;;;;;;;4985133;28;20034;-65
2022/08/27 02:06:58;;;;;;;12.20;10.57;;;;;;;;;;4980679;28;20081;-64
2022/08/27 02:09:24;;;;;;;15.32;11.68;;;;;;;;;;4982136;28;20026;-65
2022/08/27 02:11:49;;;;;;;11.82;10.63;;;;;;;;;;4985975;28;20041;-64
2022/08/27 02:14:14;;;;;;;11.40;10.30;;;;;;;;;;4984915;28;20041;-66
2022/08/27 02:16:40;;;;;;;16.08;11.10;;;;;;;;;;4985344;28;20556;-65
2022/08/27 02:19:06;;;;;;;10.70;9.63;;;;;;;;;;4984846;28;20100;-67
2022/08/27 02:21:31;;;;;;;11.57;9.95;;;;;;;;;;4985561;28;20065;-66
2022/08/27 02:23:56;;;;;;;15.52;11.32;;;;;;;;;;4984863;28;20031;-65
2022/08/27 02:26:22;;;;;;;12.25;11.02;;;;;;;;;;4985112;28;20476;-65
2022/08/27 02:28:47;;;;;;;13.93;9.90;;;;;;;;;;4985065;28;20492;-65
2022/08/27 02:31:13;;;;;;;11.50;10.30;;;;;;;;;;4967689;28;20034;-64
2022/08/27 02:33:38;;;;;;;13.15;11.30;;;;;;;;;;4983590;28;20050;-64
2022/08/27 02:36:03;;;;;;;11.00;10.00;;;;;;;;;;4984548;28;20189;-65
2022/08/27 02:38:29;;;;;;;12.80;11.50;;;;;;;;;;4984997;28;20056;-65
2022/08/27 02:40:54;;;;;;;11.30;10.07;;;;;;;;;;4984302;28;20560;-65
2022/08/27 02:43:20;;;;;;;13.68;11.05;;;;;;;;;;4984831;28;20088;-64
2022/08/27 02:45:46;;;;;;;13.88;11.90;;;;;;;;;;4984883;28;20038;-65
2022/08/27 02:48:11;;;;;;;13.00;10.77;;;;;;;;;;4985428;28;20089;-64
2022/08/27 02:50:36;;;;;;;12.43;11.18;;;;;;;;;;4983841;28;20045;-65
2022/08/27 02:53:03;;;;;;;11.77;10.55;;;;;;;;;;4985031;28;20618;-65
2022/08/27 02:55:28;;;;;;;15.90;11.55;;;;;;;;;;4980383;28;20038;-65
2022/08/27 02:57:54;;;;;;;12.18;10.98;;;;;;;;;;4981440;28;20030;-64
2022/08/27 03:00:23;;;;;;;11.82;10.65;;;;;;;;;;4983197;28;20512;-64
2022/08/27 03:02:48;;;;;;;13.00;11.55;;;;;;;;;;4984661;28;20572;-64
2022/08/27 03:05:15;;;;;;;11.75;10.57;;;;;;;;;;4966904;28;20030;-64
2022/08/27 03:07:40;;;;;;;14.20;11.93;;;;;;;;;;4985295;28;20026;-63
2022/08/27 03:10:06;;;;;;;11.90;10.27;;;;;;;;;;4984392;28;20030;-65
2022/08/27 03:12:34;;;;;;;12.10;10.75;;;;;;;;;;4984997;28;20153;-65
2022/08/27 03:15:00;;;;;;;13.02;11.80;;;;;;;;;;4983844;28;20043;-63
2022/08/27 03:20:11;;;;;;;13.75;11.65;;;;;;;;;;4983672;28;20061;-64
2022/08/27 03:22:36;;;;;;;11.25;10.23;;;;;;;;;;4985132;28;20148;-65
2022/08/27 03:25:02;;;;;;;15.73;12.27;;;;;;;;;;4983377;28;20034;-65
2022/08/27 03:27:27;;;;;;;11.18;10.00;;;;;;;;;;4967317;28;20030;-65
2022/08/27 03:29:53;;;;;;;11.50;10.00;;;;;;;;;;4983589;28;20567;-65
2022/08/27 03:32:18;;;;;;;11.05;10.05;;;;;;;;;;4983867;28;20420;-63
2022/08/27 03:34:43;;;;;;;11.90;10.70;;;;;;;;;;4983744;28;20066;-63
2022/08/27 03:37:08;;;;;;;13.32;11.38;;;;;;;;;;4984856;28;20042;-63
2022/08/27 03:39:34;;;;;;;14.32;11.02;;;;;;;;;;4983806;28;20034;-63
2022/08/27 03:41:59;;;;;;;14.10;12.02;;;;;;;;;;4984205;28;20473;-63
2022/08/27 03:44:24;;;;;;;12.32;11.02;;;;;;;;;;4984179;28;20031;-63
2022/08/27 03:46:50;;;;;;;12.90;11.60;;;;;;;;;;4982335;28;20038;-63
2022/08/27 03:49:16;;;;;;;14.52;11.68;;;;;;;;;;4983549;28;20461;-65
2022/08/27 03:51:41;;;;;;;13.98;12.50;;;;;;;;;;4980205;28;20026;-63
2022/08/27 03:54:07;;;;;;;15.63;12.68;;;;;;;;;;4979336;28;20030;-65
2022/08/27 03:56:38;;;;;;;12.50;11.20;;;;;;;;;;4984602;28;20026;-65
2022/08/27 03:59:03;;;;;;;12.88;11.68;;;;;;;;;;4984304;28;20042;-65
2022/08/27 04:01:29;;;;;;;16.88;13.00;;;;;;;;;;4958607;28;20127;-65
2022/08/27 04:03:54;;;;;;;12.10;10.63;;;;;;;;;;4987596;28;20408;-65
2022/08/27 04:06:19;;;;;;;13.27;11.80;;;;;;;;;;4987625;28;20727;-65
2022/08/27 04:08:44;;;;;;;12.65;11.30;;;;;;;;;;4987897;28;20030;-65
2022/08/27 04:11:10;;;;;;;14.23;12.13;;;;;;;;;;4986505;28;20050;-65
2022/08/27 04:13:35;;;;;;;12.10;10.93;;;;;;;;;;4987838;28;20461;-65
2022/08/27 04:16:01;;;;;;;13.77;12.55;;;;;;;;;;4971387;28;20121;-65
2022/08/27 04:18:26;;;;;;;15.82;11.48;;;;;;;;;;4987609;28;20035;-65
2022/08/27 04:20:51;;;;;;;12.00;10.90;;;;;;;;;;4987110;28;20048;-65
2022/08/27 04:23:17;;;;;;;11.27;10.32;;;;;;;;;;4987609;28;20117;-63
2022/08/27 04:25:43;;;;;;;16.13;12.40;;;;;;;;;;4987195;28;20369;-64
2022/08/27 04:28:09;;;;;;;14.55;12.82;;;;;;;;;;4987354;28;20129;-63
2022/08/27 04:30:38;;;;;;;11.48;10.45;;;;;;;;;;4986861;28;20042;-64
2022/08/27 04:33:03;;;;;;;13.30;11.82;;;;;;;;;;4986493;28;20058;-64
2022/08/27 04:35:28;;;;;;;12.88;10.15;;;;;;;;;;4972161;28;20022;-64
2022/08/27 04:37:54;;;;;;;14.30;11.20;;;;;;;;;;4986338;28;20026;-65
2022/08/27 04:40:19;;;;;;;15.73;11.27;;;;;;;;;;4987277;28;20030;-65
2022/08/27 04:42:44;;;;;;;15.68;12.23;;;;;;;;;;4987008;28;20045;-64
2022/08/27 04:45:09;;;;;;;22.98;12.25;;;;;;;;;;4986654;28;20030;-64
2022/08/27 04:47:35;;;;;;;13.20;11.73;;;;;;;;;;4985237;28;20108;-64
2022/08/27 04:50:00;;;;;;;16.63;11.85;;;;;;;;;;4986571;28;20033;-64
2022/08/27 04:52:25;;;;;;;15.32;12.32;;;;;;;;;;4984271;28;20030;-64
2022/08/27 04:54:51;;;;;;;14.05;11.82;;;;;;;;;;4981641;28;20775;-64
2022/08/27 04:57:16;;;;;;;13.32;11.38;;;;;;;;;;4984030;28;20026;-65
2022/08/27 04:59:41;;;;;;;14.20;11.60;;;;;;;;;;4986990;28;20072;-64
2022/08/27 05:02:08;;;;;;;12.40;10.35;;;;;;;;;;4985986;28;20110;-64
2022/08/27 05:04:34;;;;;;;13.40;11.77;;;;;;;;;;4988240;28;20117;-65
2022/08/27 05:07:00;;;;;;;12.60;10.52;;;;;;;;;;4988113;28;20576;-64
2022/08/27 05:09:25;;;;;;;12.90;10.05;;;;;;;;;;4987204;28;20038;-63
2022/08/27 05:11:52;;;;;;;11.60;10.50;;;;;;;;;;4985730;28;20178;-63
2022/08/27 05:14:19;;;;;;;11.18;10.13;;;;;;;;;;4986314;28;20121;-64
2022/08/27 05:16:46;;;;;;;11.80;10.65;;;;;;;;;;4986206;28;20121;-65
2022/08/27 05:19:14;;;;;;;10.93;9.88;;;;;;;;;;4986486;28;20045;-64
2022/08/27 05:21:44;;;;;;;11.85;9.88;;;;;;;;;;4985249;28;20106;-64
2022/08/27 05:24:09;;;;;;;11.65;9.90;;;;;;;;;;4981237;28;20081;-64
2022/08/27 05:26:34;;;;;;;13.95;9.90;;;;;;;;;;4984118;28;20552;-64
2022/08/27 05:29:00;;;;;;;10.10;9.23;;;;;;;;;;4985360;28;20533;-64
2022/08/27 05:31:27;;;;;;;10.25;9.18;;;;;;;;;;4986240;28;20125;-63
2022/08/27 05:33:54;;;;;;;11.68;9.07;;;;;;;;;;4984965;28;20058;-63
2022/08/27 05:36:22;;;;;;;10.10;8.70;;;;;;;;;;4986679;28;20785;-64
2022/08/27 05:38:48;;;;;;;10.90;9.80;;;;;;;;;;4988346;28;20117;-65
2022/08/27 05:41:15;;;;;;;10.57;9.38;;;;;;;;;;4989336;28;20109;-64
2022/08/27 05:43:41;;;;;;;10.38;9.40;;;;;;;;;;4988996;28;20388;-64
2022/08/27 05:46:15;;;;;;;10.48;9.20;;;;;;;;;;4986635;28;20038;-63
2022/08/27 05:48:40;;;;;;;11.47;10.23;;;;;;;;;;4980660;28;20036;-63
2022/08/27 05:51:10;;;;;;;12.88;9.52;;;;;;;;;;4983926;28;20014;-64
2022/08/27 05:53:35;;;;;;;11.32;9.90;;;;;;;;;;4985005;28;20025;-65
2022/08/27 05:56:00;;;;;;;10.57;9.32;;;;;;;;;;4985009;28;20026;-64
2022/08/27 06:01:09;;;;;;;11.60;8.85;;;;;;;;;;4985780;28;20068;-63
2022/08/27 06:03:36;;;;;;;10.18;9.18;;;;;;;;;;4984488;28;20113;-65
2022/08/27 06:06:01;;;;;;;10.25;9.25;;;;;;;;;;4984841;28;20502;-65
2022/08/27 06:08:26;;;;;;;9.50;8.57;;;;;;;;;;4982142;28;20037;-65
2022/08/27 06:10:52;;;;;;;10.20;9.27;;;;;;;;;;4981061;28;20214;-65
2022/08/27 06:13:17;;;;;;;12.55;8.65;;;;;;;;;;4982179;28;20584;-65
2022/08/27 06:15:43;;;;;;;9.70;8.88;;;;;;;;;;4984565;28;20537;-65
2022/08/27 06:18:08;;;;;;;9.30;8.38;;;;;;;;;;4983336;28;20026;-65
2022/08/27 06:20:33;;;;;;;12.43;8.93;;;;;;;;;;4979279;28;20038;-65
2022/08/27 06:22:59;;;;;;;9.30;8.50;;;;;;;;;;4963541;28;20118;-65
2022/08/27 06:25:25;;;;;;;12.07;7.75;;;;;;;;;;4979275;28;20145;-66
2022/08/27 06:27:50;;;;;;;8.90;7.90;;;;;;;;;;4979581;28;20037;-66
2022/08/27 06:30:15;;;;;;;9.15;8.07;;;;;;;;;;4955627;28;20088;-66
2022/08/27 06:32:44;;;;;;;10.85;8.13;;;;;;;;;;4964141;28;20109;-66
2022/08/27 06:35:09;;;;;;;9.60;8.70;;;;;;;;;;4984493;28;20470;-65
2022/08/27 06:37:35;;;;;;;9.80;8.38;;;;;;;;;;4984638;28;20030;-66
2022/08/27 06:40:00;;;;;;;9.25;8.02;;;;;;;;;;4981001;28;20151;-65
2022/08/27 06:42:25;;;;;;;7.95;7.15;;;;;;;;;;4979581;28;20058;-65
2022/08/27 06:44:51;;;;;;;10.40;7.93;;;;;;;;;;4980629;28;20109;-65
2022/08/27 06:47:16;;;;;;;8.15;7.32;;;;;;;;;;4979951;28;20491;-65
2022/08/27 06:49:41;;;;;;;8.95;8.05;;;;;;;;;;4982384;28;20031;-65
2022/08/27 06:52:06;;;;;;;7.75;7.05;;;;;;;;;;4980830;28;20030;-65
2022/08/27 06:54:32;;;;;;;8.18;7.50;;;;;;;;;;4969473;28;20452;-65
2022/08/27 06:56:58;;;;;;;7.55;6.95;;;;;;;;;;4984828;28;20046;-66
2022/08/27 06:59:24;;;;;;;8.70;7.35;;;;;;;;;;4984490;28;20304;-65
2022/08/27 07:01:50;;;;;;;7.88;6.80;;;;;;;;;;4981959;28;20022;-64
2022/08/27 07:04:22;;;;;;;8.88;7.45;;;;;;;;;;4978680;28;20455;-64
2022/08/27 07:06:48;;;;;;;8.93;8.13;;;;;;;;;;4983252;28;20086;-64
2022/08/27 07:09:13;;;;;;;8.15;7.47;;;;;;;;;;4981878;28;20432;-62
2022/08/27 07:11:38;;;;;;;10.18;8.00;;;;;;;;;;4979517;28;20029;-65
2022/08/27 07:14:05;;;;;;;8.90;7.35;;;;;;;;;;4981652;28;20041;-63
2022/08/27 07:16:30;;;;;;;8.02;7.22;;;;;;;;;;4977838;28;20143;-63
2022/08/27 07:18:57;;;;;;;7.68;6.97;;;;;;;;;;4980780;28;20485;-64
2022/08/27 07:21:22;;;;;;;6.70;6.03;;;;;;;;;;4983995;28;20034;-63
2022/08/27 07:23:49;;;;;;;6.85;6.25;;;;;;;;;;4983065;28;20061;-64
2022/08/27 07:26:15;;;;;;;8.32;7.35;;;;;;;;;;4979734;28;20037;-67
2022/08/27 07:28:41;;;;;;;8.80;6.90;;;;;;;;;;4965378;28;20563;-64
2022/08/27 07:31:11;;;;;;;6.25;5.80;;;;;;;;;;4981885;28;20026;-64
2022/08/27 07:33:37;;;;;;;7.53;6.35;;;;;;;;;;4979537;28;20050;-64
2022/08/27 07:36:03;;;;;;;8.95;7.15;;;;;;;;;;4982094;28;20041;-64
2022/08/27 07:38:28;;;;;;;6.57;6.05;;;;;;;;;;4982570;28;20639;-63
2022/08/27 07:40:54;;;;;;;7.35;6.68;;;;;;;;;;4986772;28;20038;-64
2022/08/27 07:46:04;;;;;;;7.55;6.95;;;;;;;;;;4988241;28;20045;-65
2022/08/27 07:48:31;;;;;;;8.52;7.60;;;;;;;;;;4987346;28;20022;-65
2022/08/27 07:50:57;;;;;;;10.52;7.50;;;;;;;;;;4971032;28;20123;-68
2022/08/27 07:53:22;;;;;;;8.13;7.13;;;;;;;;;;4972001;28;20030;-68
2022/08/27 07:55:48;;;;;;;7.00;6.30;;;;;;;;;;4953485;28;20030;-54
2022/08/27 07:58:14;;;;;;;7.90;7.22;;;;;;;;;;4989021;28;20563;-61
2022/08/27 08:00:40;;;;;;;8.18;7.38;;;;;;;;;;4987437;28;20034;-62
2022/08/27 08:03:05;;;;;;;8.15;7.10;;;;;;;;;;4988296;28;20038;-66
2022/08/27 08:05:30;;;;;;;7.50;6.40;;;;;;;;;;4987487;28;20526;-66
2022/08/27 08:07:55;;;;;;;8.60;7.70;;;;;;;;;;4988756;28;20049;-65
2022/08/27 08:10:22;;;;;;;6.93;6.35;;;;;;;;;;4987895;28;20052;-66
2022/08/27 08:12:47;;;;;;;6.82;6.30;;;;;;;;;;4986298;28;20049;-65
2022/08/27 08:15:13;;;;;;;11.20;7.07;;;;;;;;;;4965165;28;20481;-66
2022/08/27 08:17:38;;;;;;;6.72;5.90;;;;;;;;;;4986424;28;20030;-65
2022/08/27 08:20:05;;;;;;;7.22;6.55;;;;;;;;;;4965940;28;20045;-60
2022/08/27 08:22:30;;;;;;;7.10;6.45;;;;;;;;;;4983285;28;20393;-64
2022/08/27 08:24:56;;;;;;;7.47;6.68;;;;;;;;;;4986027;28;20037;-64
2022/08/27 08:27:21;;;;;;;8.18;6.57;;;;;;;;;;4982269;28;20503;-64
2022/08/27 08:29:47;;;;;;;6.40;5.80;;;;;;;;;;4966766;28;20065;-67
2022/08/27 08:32:12;;;;;;;6.10;5.63;;;;;;;;;;4961491;28;20066;-68
2022/08/27 08:34:38;;;;;;;8.27;6.90;;;;;;;;;;4987656;28;20050;-63
2022/08/27 08:37:04;;;;;;;10.80;6.68;;;;;;;;;;4983767;28;20515;-66
2022/08/27 08:39:30;;;;;;;7.22;6.53;;;;;;;;;;4982046;28;20496;-69
2022/08/27 08:41:57;;;;;;;7.03;5.82;;;;;;;;;;4971019;28;20026;-67
2022/08/27 08:44:34;;;;;;;8.95;6.40;;;;;;;;;;4987477;28;20033;-69
2022/08/27 08:47:06;;;;;;;7.25;6.55;;;;;;;;;;4987055;28;20058;-69
2022/08/27 08:49:31;;;;;;;6.63;6.03;;;;;;;;;;4985638;28;20474;-70
2022/08/27 08:52:01;;;;;;;7.63;6.85;;;;;;;;;;4987628;28;20022;-69
2022/08/27 08:54:29;;;;;;;7.25;6.65;;;;;;;;;;4987099;28;20077;-69
2022/08/27 08:57:02;;;;;;;6.95;6.28;;;;;;;;;;4964331;28;20026;-69
2022/08/27 08:59:36;;;;;;;8.18;6.45;;;;;;;;;;4981824;28;20066;-69
2022/08/27 09:02:03;;;;;;;6.20;5.60;;;;;;;;;;4986752;28;20762;-70
2022/08/27 09:04:28;;;;;;;7.63;6.85;;;;;;;;;;4986498;28;20117;-69
2022/08/27 09:06:57;;;;;;;7.07;6.13;;;;;;;;;;4987024;28;20539;-70
2022/08/27 09:09:26;;;;;;;6.13;5.63;;;;;;;;;;4986169;28;20109;-69
2022/08/27 09:11:51;;;;;;;6.82;6.20;;;;;;;;;;4985795;28;20065;-70
2022/08/27 09:14:29;;;;;;;6.70;5.55;;;;;;;;;;4983123;28;20105;-68
2022/08/27 09:16:54;;;;;;;7.07;6.47;;;;;;;;;;4984683;28;20104;-69
2022/08/27 09:19:20;;;;;;;6.53;5.80;;;;;;;;;;4982015;28;20036;-69
2022/08/27 09:22:00;;;;;;;7.35;6.60;;;;;;;;;;4965291;28;20041;-68
2022/08/27 09:24:25;;;;;;;7.45;6.50;;;;;;;;;;4986318;28;20076;-68
2022/08/27 09:26:51;;;;;;;6.57;6.07;;;;;;;;;;4986012;28;20030;-70
2022/08/27 09:29:19;;;;;;;7.07;6.38;;;;;;;;;;4986195;28;20393;-70
2022/08/27 09:31:46;;;;;;;7.25;6.55;;;;;;;;;;4986254;28;20030;-69
2022/08/27 09:34:12;;;;;;;8.93;6.80;;;;;;;;;;4986446;28;20077;-70
2022/08/27 09:36:56;;;;;;;7.85;7.15;;;;;;;;;;4967598;28;20038;-72
2022/08/27 09:39:31;;;;;;;6.97;6.35;;;;;;;;;;4984531;28;20033;-70
2022/08/27 09:41:57;;;;;;;8.20;6.57;;;;;;;;;;4981621;28;20042;-68
2022/08/27 09:44:23;;;;;;;7.25;6.72;;;;;;;;;;4981639;28;20089;-70
2022/08/27 09:46:58;;;;;;;8.02;6.80;;;;;;;;;;4985474;28;20101;-69
2022/08/27 09:49:24;;;;;;;7.63;6.68;;;;;;;;;;4984743;28;20061;-63
2022/08/27 09:51:50;;;;;;;8.95;6.97;;;;;;;;;;4962931;28;20125;-67
2022/08/27 09:54:37;;;;;;;11.23;6.78;;;;;;;;;;4980751;28;20108;-68
2022/08/27 09:57:03;;;;;;;7.15;6.55;;;;;;;;;;4985618;28;20395;-70
2022/08/27 09:59:34;;;;;;;7.72;7.03;;;;;;;;;;4984705;28;20029;-65
2022/08/27 10:02:17;;;;;;;6.63;6.13;;;;;;;;;;4985558;28;20034;-68
2022/08/27 10:04:49;;;;;;;7.18;6.45;;;;;;;;;;4985344;28;20057;-68
2022/08/27 10:07:14;;;;;;;7.70;6.95;;;;;;;;;;4985044;28;20089;-69
2022/08/27 10:09:45;;;;;;;11.13;8.57;;;;;;;;;;4985470;28;20034;-69
2022/08/27 10:12:17;;;;;;;9.82;7.43;;;;;;;;;;4985570;28;20033;-70
2022/08/27 10:14:48;;;;;;;8.48;7.78;;;;;;;;;;4984851;28;20109;-65
2022/08/27 10:17:16;;;;;;;8.20;7.35;;;;;;;;;;4985238;28;20030;-67
2022/08/27 10:19:45;;;;;;;9.85;7.53;;;;;;;;;;4967904;28;20026;-67
2022/08/27 10:22:30;;;;;;;9.18;7.47;;;;;;;;;;4984748;28;20018;-65
2022/08/27 10:24:58;;;;;;;9.65;7.30;;;;;;;;;;4984712;28;20038;-66
2022/08/27 10:27:42;;;;;;;8.15;7.28;;;;;;;;;;4979598;28;20089;-67
2022/08/27 10:30:12;;;;;;;7.45;6.75;;;;;;;;;;4980711;28;20026;-64
2022/08/27 10:32:38;;;;;;;9.15;6.88;;;;;;;;;;4979980;28;20105;-67
2022/08/27 10:35:11;;;;;;;10.30;7.63;;;;;;;;;;4980491;28;20108;-67
2022/08/27 10:37:36;;;;;;;8.18;7.35;;;;;;;;;;4984721;28;20023;-67
2022/08/27 10:40:10;;;;;;;8.88;6.13;;;;;;;;;;4984047;28;20080;-67
2022/08/27 10:42:35;;;;;;;;;;;;;;;;;;4985197;28;20075;-67
2022/08/27 10:45:10;;;;;;;7.57;6.97;;;;;;;;;;4984937;28;20324;-69
2022/08/27 10:47:54;;;;;;;8.23;6.20;;;;;;;;;;4984460;28;20049;-68
2022/08/27 10:50:28;;;;;;;8.45;6.88;;;;;;;;;;4983729;28;20038;-64
2022/08/27 10:52:53;;;;;;;7.93;7.35;;;;;;;;;;4984533;28;20648;-66
2022/08/27 10:55:21;;;;;;;7.25;6.57;;;;;;;;;;4984902;28;20030;-66
2022/08/27 10:57:55;;;;;;;7.78;6.68;;;;;;;;;;4984467;28;20108;-67
2022/08/27 11:00:21;;;;;;;7.72;6.70;;;;;;;;;;4985079;28;20147;-68
2022/08/27 11:03:13;;;;;;;8.43;7.25;;;;;;;;;;4984943;28;20026;-68
2022/08/27 11:05:46;;;;;;;8.77;7.50;;;;;;;;;;4980876;28;20038;-67
2022/08/27 11:08:21;;;;;;;8.05;7.10;;;;;;;;;;4984556;28;20037;-67
2022/08/27 11:10:50;;;;;;;8.18;7.45;;;;;;;;;;4984778;28;20057;-66
2022/08/27 11:13:34;;;;;;;10.15;8.43;;;;;;;;;;4965955;28;20038;-68
2022/08/27 11:16:01;;;;;;;11.73;7.60;;;;;;;;;;4979312;28;20036;-64
2022/08/27 11:18:41;;;;;;;7.60;6.85;;;;;;;;;;4983516;28;20022;-65
2022/08/27 11:21:12;;;;;;;8.68;7.97;;;;;;;;;;4967103;28;20038;-69
2022/08/27 11:23:45;;;;;;;7.55;6.88;;;;;;;;;;4981470;28;20033;-64
2022/08/27 11:26:11;;;;;;;8.83;7.03;;;;;;;;;;4984524;28;20070;-68
2022/08/27 11:28:40;;;;;;;7.35;6.65;;;;;;;;;;4984074;28;20503;-67
2022/08/27 11:31:29;;;;;;;9.85;7.88;;;;;;;;;;4983793;28;20037;-67
2022/08/27 11:34:14;;;;;;;13.77;8.77;;;;;;;;;;4973233;28;20056;-68
2022/08/27 11:36:58;;;;;;;15.73;9.02;;;;;;;;;;4969375;28;20104;-67
2022/08/27 11:39:42;;;;;;;13.43;8.90;;;;;;;;;;4984497;28;20391;-64
2022/08/27 11:42:20;;;;;;;9.88;7.22;;;;;;;;;;4984084;28;20472;-67
2022/08/27 11:44:47;;;;;;;11.82;7.25;;;;;;;;;;4981324;28;20045;-68
2022/08/27 11:47:20;;;;;;;6.97;6.32;;;;;;;;;;4979483;28;20026;-67
2022/08/27 11:49:54;;;;;;;8.77;7.72;;;;;;;;;;4984079;28;20065;-67
2022/08/27 11:52:23;;;;;;;7.07;6.35;;;;;;;;;;4983877;28;20113;-67
2022/08/27 11:54:50;;;;;;;8.48;7.00;;;;;;;;;;4984153;28;20699;-67
2022/08/27 11:57:25;;;;;;;7.72;7.07;;;;;;;;;;4983142;28;20458;-70
2022/08/27 11:59:50;;;;;;;9.05;7.28;;;;;;;;;;4984183;28;20026;-68
2022/08/27 12:02:26;;;;;;;12.00;8.45;;;;;;;;;;4983268;28;20030;-67
2022/08/27 12:04:54;;;;;;;8.45;7.60;;;;;;;;;;4984451;28;20058;-66
2022/08/27 12:07:26;;;;;;;8.88;8.02;;;;;;;;;;4982457;28;20494;-67
2022/08/27 12:10:07;;;;;;;7.65;7.03;;;;;;;;;;4983938;28;20125;-68
2022/08/27 12:12:47;;;;;;;8.88;7.22;;;;;;;;;;4983026;28;20019;-67
2022/08/27 12:15:15;;;;;;;7.72;6.93;;;;;;;;;;4984215;28;20057;-68
2022/08/27 12:17:57;;;;;;;8.27;7.45;;;;;;;;;;4983843;28;20560;-62
2022/08/27 12:20:40;;;;;;;8.60;7.80;;;;;;;;;;4982841;28;20034;-58
2022/08/27 12:26:00;;;;;;;7.97;7.32;;;;;;;;;;4986926;28;20029;-61
2022/08/27 12:28:26;;;;;;;7.43;6.65;;;;;;;;;;4986958;28;20022;-62
2022/08/27 12:30:51;;;;;;;7.90;7.18;;;;;;;;;;4986615;28;20080;-60
2022/08/27 12:33:17;;;;;;;10.15;9.18;;;;;;;;;;4985749;28;20054;-60
2022/08/27 12:35:47;;;;;;;8.55;7.25;;;;;;;;;;4986066;28;20056;-60
2022/08/27 12:38:15;;;;;;;8.77;8.00;;;;;;;;;;4987062;28;20022;-60
2022/08/27 12:40:48;;;;;;;10.73;7.63;;;;;;;;;;4984987;28;20034;-60
2022/08/27 12:43:17;;;;;;;9.02;7.50;;;;;;;;;;4986705;28;20045;-63
2022/08/27 12:45:46;;;;;;;8.38;7.57;;;;;;;;;;4986234;28;20042;-62
2022/08/27 12:48:11;;;;;;;8.80;8.00;;;;;;;;;;4984861;28;20383;-61
2022/08/27 12:50:37;;;;;;;8.88;7.97;;;;;;;;;;4980968;28;20467;-61
2022/08/27 12:53:18;;;;;;;10.23;9.20;;;;;;;;;;4984099;28;20046;-61
2022/08/27 12:55:51;;;;;;;9.65;8.75;;;;;;;;;;4981664;28;20026;-62
2022/08/27 12:58:30;;;;;;;9.85;8.95;;;;;;;;;;4984737;28;20022;-62
2022/08/27 13:01:14;;;;;;;9.60;8.70;;;;;;;;;;4985800;28;20096;-63
2022/08/27 13:03:41;;;;;;;10.70;8.47;;;;;;;;;;4981154;28;20516;-62
2022/08/27 13:06:17;;;;;;;9.85;9.05;;;;;;;;;;4982334;28;20022;-62
2022/08/27 13:08:42;;;;;;;12.00;8.95;;;;;;;;;;4983652;28;20109;-62
2022/08/27 13:11:22;;;;;;;9.45;8.50;;;;;;;;;;4954856;28;20034;-62
2022/08/27 13:13:48;;;;;;;14.57;8.55;;;;;;;;;;4984474;28;20026;-62
2022/08/27 13:16:15;;;;;;;9.07;8.18;;;;;;;;;;4985850;28;20120;-62
2022/08/27 13:18:40;;;;;;;9.48;8.63;;;;;;;;;;4980930;28;20077;-62
2022/08/27 13:21:10;;;;;;;9.32;7.32;;;;;;;;;;4984508;28;20121;-64
2022/08/27 13:23:35;;;;;;;8.55;6.85;;;;;;;;;;4985802;28;20145;-61
2022/08/27 13:26:05;;;;;;;8.13;7.43;;;;;;;;;;4987377;28;20113;-61
2022/08/27 13:28:32;;;;;;;10.35;7.82;;;;;;;;;;4986265;28;20022;-67
2022/08/27 13:30:58;;;;;;;7.70;6.95;;;;;;;;;;4986619;28;20078;-66
2022/08/27 13:33:26;;;;;;;7.43;6.78;;;;;;;;;;4970482;28;20054;-63
2022/08/27 13:35:52;;;;;;;6.90;6.38;;;;;;;;;;4985531;28;20030;-63
2022/08/27 13:38:17;;;;;;;6.28;5.80;;;;;;;;;;4985981;28;20022;-68
2022/08/27 13:40:54;;;;;;;8.52;7.65;;;;;;;;;;4984796;28;20038;-68
2022/08/27 13:43:28;;;;;;;6.85;6.32;;;;;;;;;;4979552;28;20033;-67
2022/08/27 13:45:54;;;;;;;6.28;5.78;;;;;;;;;;4985156;28;20065;-68
2022/08/27 13:48:20;;;;;;;6.30;5.75;;;;;;;;;;4985832;28;20030;-65
2022/08/27 13:50:50;;;;;;;6.93;6.30;;;;;;;;;;4986179;28;20101;-64
2022/08/27 13:56:02;;;;;;;6.88;5.85;;;;;;;;;;4985710;28;20550;-63
2022/08/27 13:58:29;;;;;;;6.65;6.05;;;;;;;;;;4985328;28;20026;-63
2022/08/27 14:01:05;;;;;;;7.05;6.45;;;;;;;;;;4986136;28;20113;-64
2022/08/27 14:03:35;;;;;;;5.53;5.03;;;;;;;;;;4968788;28;20034;-64
2022/08/27 14:06:01;;;;;;;5.82;4.70;;;;;;;;;;4985034;28;20022;-63
2022/08/27 14:08:28;;;;;;;6.45;5.00;;;;;;;;;;4984550;28;20403;-63
2022/08/27 14:11:02;;;;;;;9.35;4.70;;;;;;;;;;4985349;28;20536;-64
2022/08/27 14:13:29;;;;;;;;;;;;;;;;;;4985817;28;20022;-62
2022/08/27 14:15:56;;;;;;;5.65;5.15;;;;;;;;;;4964268;28;19932;-65
2022/08/27 14:18:21;;;;;;;7.03;5.47;;;;;;;;;;4980699;28;20149;-66
2022/08/27 14:20:46;;;;;;;6.40;5.80;;;;;;;;;;4984479;28;20030;-64
2022/08/27 14:23:11;;;;;;;6.72;6.20;;;;;;;;;;4984560;28;20030;-64
2022/08/27 14:25:38;;;;;;;8.05;5.90;;;;;;;;;;4985668;28;20492;-63
2022/08/27 14:28:04;;;;;;;9.20;6.82;;;;;;;;;;4984392;28;20085;-66
2022/08/27 14:30:30;;;;;;;7.70;6.15;;;;;;;;;;4984248;28;20760;-64
2022/08/27 14:32:57;;;;;;;5.82;5.32;;;;;;;;;;4978563;28;20341;-69
2022/08/27 14:35:22;;;;;;;6.97;6.28;;;;;;;;;;4981358;28;20027;-62
2022/08/27 14:37:47;;;;;;;6.85;6.20;;;;;;;;;;4983009;28;20037;-64
2022/08/27 14:40:13;;;;;;;7.45;6.78;;;;;;;;;;4980893;28;20086;-62
2022/08/27 14:42:38;;;;;;;7.53;5.95;;;;;;;;;;4965973;28;20440;-62
2022/08/27 14:45:04;;;;;;;8.02;6.35;;;;;;;;;;4982839;28;20465;-62
2022/08/27 14:47:30;;;;;;;6.85;6.15;;;;;;;;;;4981257;28;20030;-67
2022/08/27 14:49:55;;;;;;;8.95;6.97;;;;;;;;;;4984024;28;20053;-69
2022/08/27 14:52:21;;;;;;;8.15;7.32;;;;;;;;;;4986756;28;20037;-68